Time;durP1;ratioP1;P1;durP2;ratioP2;P2;SDS_P1;SDS_P2;PMS_P1;PMS_P2;Temp;Humidity;BMP_temperature;BMP_pressure;BME280_temperature;BME280_humidity;BME280_pressure;Samples;Min_cycle;Max_cycle;Signal;HPM_P1;HPM_P2
2022/12/07 00:01:24;;;;;;;54.67;29.05;;;;;;;4.13;89.39;101641.13;5010112;28;20183;-69
2022/12/07 00:03:53;;;;;;;55.60;28.27;;;;;;;4.06;89.64;101647.84;5022157;28;20049;-67
2022/12/07 00:06:23;;;;;;;56.58;28.15;;;;;;;4.20;89.79;101641.00;5028074;28;20048;-68
2022/12/07 00:08:51;;;;;;;54.72;28.65;;;;;;;4.09;90.10;101642.72;5006036;28;20053;-67
2022/12/07 00:11:20;;;;;;;54.05;28.80;;;;;;;4.12;90.23;101633.22;5024923;28;20052;-69
2022/12/07 00:13:55;;;;;;;51.70;28.75;;;;;;;4.42;88.99;101636.41;5009396;28;20052;-68
2022/12/07 00:16:24;;;;;;;53.10;29.13;;;;;;;4.12;89.04;101644.13;5013840;28;20049;-68
2022/12/07 00:18:52;;;;;;;52.22;27.63;;;;;;;3.92;90.40;101638.34;5015366;28;20049;-68
2022/12/07 00:21:22;;;;;;;52.20;29.02;;;;;;;4.16;90.48;101634.38;5012574;28;20061;-68
2022/12/07 00:23:51;;;;;;;54.20;29.25;;;;;;;4.04;89.88;101631.75;5014397;28;20073;-68
2022/12/07 00:26:20;;;;;;;56.10;29.35;;;;;;;4.08;91.20;101626.63;5006890;28;20050;-67
2022/12/07 00:28:50;;;;;;;55.72;29.08;;;;;;;4.30;90.66;101624.78;5021562;28;20049;-68
2022/12/07 00:31:19;;;;;;;57.03;29.10;;;;;;;4.20;90.15;101627.38;5043903;28;20046;-70
2022/12/07 00:33:47;;;;;;;61.58;31.88;;;;;;;3.96;91.11;101625.84;5007391;28;20042;-68
2022/12/07 00:36:18;;;;;;;55.80;29.80;;;;;;;3.97;91.59;101631.09;5020691;28;20056;-67
2022/12/07 00:38:57;;;;;;;55.22;28.70;;;;;;;4.05;91.42;101630.66;5021213;28;20074;-68
2022/12/07 00:41:26;;;;;;;51.95;28.70;;;;;;;4.00;91.68;101627.84;5030172;28;20061;-68
2022/12/07 00:43:53;;;;;;;56.55;28.63;;;;;;;4.02;91.61;101622.16;5024840;28;20053;-68
2022/12/07 00:46:21;;;;;;;53.33;27.45;;;;;;;4.20;91.22;101624.63;5010558;28;20050;-67
2022/12/07 00:48:50;;;;;;;54.38;28.15;;;;;;;4.61;90.25;101626.88;4994398;28;20058;-67
2022/12/07 00:51:20;;;;;;;52.80;27.38;;;;;;;4.74;89.00;101620.22;5025914;28;20068;-68
2022/12/07 00:53:51;;;;;;;50.67;27.02;;;;;;;4.67;88.74;101616.84;5054345;28;20064;-66
2022/12/07 00:56:24;;;;;;;51.28;27.05;;;;;;;4.39;88.61;101623.28;5021906;28;20049;-67
2022/12/07 00:58:53;;;;;;;49.20;28.38;;;;;;;4.26;89.15;101612.72;4991455;28;20053;-67
2022/12/07 01:01:21;;;;;;;51.30;27.77;;;;;;;3.95;91.00;101610.59;5033727;28;20076;-67
2022/12/07 01:03:48;;;;;;;53.80;28.15;;;;;;;3.84;91.71;101609.59;5034021;28;20053;-67
2022/12/07 01:06:17;;;;;;;51.63;28.42;;;;;;;4.06;92.46;101615.94;5033405;28;20050;-67
2022/12/07 01:08:44;;;;;;;54.15;27.98;;;;;;;4.06;91.93;101612.41;5032744;28;20060;-67
2022/12/07 01:11:16;;;;;;;53.92;29.08;;;;;;;4.00;92.13;101616.13;5040687;28;20049;-67
2022/12/07 01:13:44;;;;;;;55.00;28.98;;;;;;;3.95;92.58;101605.97;5039989;28;20050;-68
2022/12/07 01:16:15;;;;;;;53.20;28.23;;;;;;;4.01;92.93;101610.41;5033585;28;20064;-67
2022/12/07 01:18:46;;;;;;;53.22;29.17;;;;;;;3.95;92.51;101611.44;5034137;28;20064;-67
2022/12/07 01:21:41;;;;;;;59.35;28.33;;;;;;;3.89;92.97;101606.94;5035345;28;20045;-68
2022/12/07 01:24:10;;;;;;;52.40;28.65;;;;;;;3.85;92.91;101610.44;5032493;28;20105;-68
2022/12/07 01:26:38;;;;;;;60.55;30.48;;;;;;;4.11;93.22;101610.59;5029392;28;20164;-68
2022/12/07 01:29:05;;;;;;;59.97;29.20;;;;;;;4.35;92.08;101606.59;5036820;28;20053;-67
2022/12/07 01:31:32;;;;;;;55.47;29.83;;;;;;;4.08;91.27;101605.63;5045408;28;20056;-67
2022/12/07 01:34:00;;;;;;;54.45;28.83;;;;;;;4.05;91.91;101608.03;5036685;28;20060;-69
2022/12/07 01:36:30;;;;;;;57.47;30.35;;;;;;;3.82;92.57;101611.75;5036951;28;20412;-71
2022/12/07 01:39:00;;;;;;;56.92;28.83;;;;;;;3.82;92.36;101614.47;5030511;28;20045;-68
2022/12/07 01:41:33;;;;;;;55.20;29.45;;;;;;;3.58;93.62;101599.34;5017313;28;20060;-69
2022/12/07 01:44:24;;;;;;;60.45;30.42;;;;;;;3.43;93.62;101610.78;5050916;28;20057;-71
2022/12/07 01:46:56;;;;;;;61.17;30.40;;;;;;;3.17;94.64;101608.66;5050690;28;20053;-67
2022/12/07 01:49:30;;;;;;;63.03;31.63;;;;;;;2.85;96.34;101609.38;5039939;28;20053;-67
2022/12/07 01:52:01;;;;;;;65.63;31.20;;;;;;;2.79;97.73;101611.16;5056325;28;20214;-68
2022/12/07 01:54:29;;;;;;;59.72;31.35;;;;;;;2.91;97.88;101613.84;5029346;28;20061;-68
2022/12/07 01:56:57;;;;;;;57.70;30.10;;;;;;;2.73;97.78;101609.41;5024782;28;20377;-67
2022/12/07 01:59:26;;;;;;;58.25;29.95;;;;;;;3.00;97.52;101615.13;5020204;28;20409;-68
2022/12/07 02:01:54;;;;;;;57.35;28.83;;;;;;;2.65;97.05;101609.75;5039329;28;20053;-68
2022/12/07 02:04:22;;;;;;;54.35;29.13;;;;;;;2.75;97.42;101609.16;5055354;28;20424;-68
2022/12/07 02:06:50;;;;;;;51.83;28.25;;;;;;;2.96;97.40;101597.63;5004133;28;20045;-68
2022/12/07 02:09:17;;;;;;;62.63;30.55;;;;;;;3.05;96.88;101599.72;5000230;28;20066;-70
2022/12/07 02:11:45;;;;;;;56.05;29.73;;;;;;;3.22;96.19;101602.50;5005669;28;20496;-68
2022/12/07 02:14:12;;;;;;;58.00;29.73;;;;;;;3.19;95.56;101597.53;5035231;28;20420;-68
2022/12/07 02:16:43;;;;;;;53.60;28.23;;;;;;;3.37;95.57;101603.59;5035741;28;20148;-68
2022/12/07 02:19:32;;;;;;;52.40;28.27;;;;;;;3.31;94.56;101601.84;5036591;28;20053;-68
2022/12/07 02:22:24;;;;;;;55.65;30.00;;;;;;;3.23;95.07;101596.81;5017245;28;20508;-68
2022/12/07 02:25:05;;;;;;;55.65;28.02;;;;;;;3.75;94.43;101605.63;4999205;28;20054;-67
2022/12/07 02:28:31;;;;;;;53.33;27.30;;;;;;;3.49;94.05;101600.81;5033565;28;20049;-68
2022/12/07 02:31:03;;;;;;;52.25;26.73;;;;;;;3.66;93.39;101598.13;4972329;28;20065;-68
2022/12/07 02:33:35;;;;;;;54.33;27.40;;;;;;;4.05;92.87;101599.84;5018839;28;20148;-67
2022/12/07 02:36:17;;;;;;;53.88;26.85;;;;;;;3.93;90.82;101596.38;5004227;28;20045;-67
2022/12/07 02:39:04;;;;;;;53.35;25.65;;;;;;;3.89;91.33;101593.31;4998745;28;20505;-67
2022/12/07 02:41:36;;;;;;;52.15;26.27;;;;;;;4.08;90.48;101589.28;5015879;28;20532;-68
2022/12/07 02:44:07;;;;;;;47.15;25.17;;;;;;;4.12;89.65;101589.59;5016457;28;20412;-68
2022/12/07 02:46:38;;;;;;;50.22;25.63;;;;;;;4.22;89.19;101584.31;5026282;28;20045;-67
2022/12/07 02:49:06;;;;;;;44.60;25.10;;;;;;;4.34;88.37;101585.03;5028716;28;20070;-67
2022/12/07 02:51:39;;;;;;;47.05;24.80;;;;;;;4.25;88.47;101579.16;5025382;28;20063;-67
2022/12/07 02:54:13;;;;;;;47.50;25.33;;;;;;;4.48;87.22;101583.59;5033606;28;20066;-67
2022/12/07 02:56:43;;;;;;;43.30;23.95;;;;;;;3.87;88.15;101587.28;5003420;28;20453;-67
2022/12/07 02:59:32;;;;;;;46.30;25.48;;;;;;;3.68;89.61;101595.97;5035990;28;20389;-67
2022/12/07 03:02:28;;;;;;;44.78;24.00;;;;;;;3.83;90.03;101586.16;5048456;28;20052;-67
2022/12/07 03:04:55;;;;;;;44.00;22.63;;;;;;;3.90;89.60;101581.38;5035947;28;20045;-67
2022/12/07 03:08:01;;;;;;;41.58;22.67;;;;;;;3.83;89.79;101577.16;5052170;28;20522;-68
2022/12/07 03:10:47;;;;;;;43.70;23.80;;;;;;;3.76;89.69;101582.78;5023155;28;20065;-67
2022/12/07 03:13:30;;;;;;;39.50;23.02;;;;;;;4.05;90.49;101580.75;5005699;28;20054;-67
2022/12/07 03:16:02;;;;;;;43.63;23.15;;;;;;;4.45;88.89;101571.28;5018529;28;20041;-68
2022/12/07 03:18:34;;;;;;;36.88;21.55;;;;;;;4.40;87.66;101567.66;5021745;28;20061;-67
2022/12/07 03:21:06;;;;;;;42.63;21.50;;;;;;;4.48;87.18;101568.03;5011830;28;20042;-68
2022/12/07 03:23:35;;;;;;;40.05;22.95;;;;;;;4.00;87.40;101573.34;5028293;28;20422;-67
2022/12/07 03:26:04;;;;;;;41.65;22.95;;;;;;;3.84;89.07;101571.44;5018934;28;20049;-66
2022/12/07 03:28:35;;;;;;;41.07;21.77;;;;;;;4.05;89.22;101558.97;5042553;28;20532;-67
2022/12/07 03:31:17;;;;;;;43.20;23.13;;;;;;;4.03;88.87;101553.75;5011053;28;20304;-68
2022/12/07 03:34:06;;;;;;;41.45;22.33;;;;;;;4.01;88.53;101553.19;5035392;28;20064;-68
2022/12/07 03:36:34;;;;;;;43.33;22.73;;;;;;;4.23;88.27;101550.50;5033752;28;20050;-68
2022/12/07 03:39:17;;;;;;;37.20;22.05;;;;;;;4.47;87.11;101554.66;5050362;28;20052;-68
2022/12/07 03:41:45;;;;;;;36.88;21.02;;;;;;;4.40;86.81;101548.56;5034007;28;20526;-67
2022/12/07 03:44:13;;;;;;;39.70;21.95;;;;;;;4.25;86.21;101549.16;5022185;28;20053;-67
2022/12/07 03:46:49;;;;;;;41.00;21.10;;;;;;;4.00;87.38;101553.44;5029007;28;20052;-67
2022/12/07 03:49:26;;;;;;;37.08;20.75;;;;;;;3.64;89.13;101543.06;5036750;28;20068;-67
2022/12/07 03:52:00;;;;;;;34.67;20.27;;;;;;;3.68;89.58;101544.22;5036135;28;20152;-67
2022/12/07 03:54:39;;;;;;;40.55;22.00;;;;;;;3.61;90.79;101544.38;5032566;28;20079;-69
2022/12/07 03:57:08;;;;;;;39.25;21.23;;;;;;;3.79;90.71;101535.94;5016770;28;20052;-67
2022/12/07 03:59:36;;;;;;;37.30;20.67;;;;;;;3.82;90.42;101540.09;5017487;28;20053;-67
2022/12/07 04:02:05;;;;;;;39.08;20.52;;;;;;;3.70;90.28;101542.03;5031981;28;20056;-67
2022/12/07 04:04:33;;;;;;;38.30;22.65;;;;;;;3.60;90.90;101542.72;5054839;28;20063;-68
2022/12/07 04:07:01;;;;;;;35.78;21.10;;;;;;;3.64;90.50;101551.22;5036578;28;20056;-67
2022/12/07 04:09:28;;;;;;;40.22;21.83;;;;;;;3.42;91.18;101556.56;5020186;28;20064;-67
2022/12/07 04:11:56;;;;;;;36.13;21.10;;;;;;;3.51;91.63;101548.81;5034609;28;20049;-67
2022/12/07 04:14:23;;;;;;;43.35;23.40;;;;;;;3.26;92.33;101563.63;5033162;28;20060;-67
2022/12/07 04:16:59;;;;;;;37.83;21.10;;;;;;;3.26;92.74;101555.47;5034460;28;20535;-67
2022/12/07 04:19:29;;;;;;;42.67;22.95;;;;;;;3.23;92.91;101547.81;5017158;28;20049;-67
2022/12/07 04:21:57;;;;;;;36.33;20.52;;;;;;;3.36;93.62;101550.19;5036466;28;20061;-67
2022/12/07 04:24:25;;;;;;;39.25;20.40;;;;;;;3.25;92.87;101545.66;5046605;28;20053;-67
2022/12/07 04:26:54;;;;;;;40.50;22.40;;;;;;;3.21;93.61;101549.94;5011104;28;20041;-67
2022/12/07 04:29:22;;;;;;;40.60;21.65;;;;;;;3.31;93.74;101547.41;5034957;28;20041;-68
2022/12/07 04:31:49;;;;;;;37.10;21.33;;;;;;;3.47;93.67;101543.88;5019788;28;20400;-68
2022/12/07 04:34:17;;;;;;;40.83;21.88;;;;;;;3.38;92.37;101553.50;5035925;28;20053;-67
2022/12/07 04:36:46;;;;;;;38.38;21.83;;;;;;;3.28;93.02;101553.34;5045982;28;20049;-68
2022/12/07 04:39:18;;;;;;;38.83;21.70;;;;;;;3.24;93.43;101556.81;5012817;28;20069;-67
2022/12/07 04:41:46;;;;;;;41.42;21.85;;;;;;;3.28;93.73;101558.78;5027410;28;20045;-68
2022/12/07 04:44:14;;;;;;;40.97;22.10;;;;;;;3.41;93.34;101560.38;5034770;28;20080;-68
2022/12/07 04:46:42;;;;;;;38.85;21.92;;;;;;;3.50;92.69;101558.91;5012714;28;20052;-67
2022/12/07 04:49:11;;;;;;;39.35;21.58;;;;;;;3.28;92.49;101564.22;5019392;28;20061;-68
2022/12/07 04:51:39;;;;;;;36.25;21.67;;;;;;;3.27;92.13;101556.31;5002060;28;20062;-67
2022/12/07 04:54:06;;;;;;;38.03;22.25;;;;;;;3.02;93.71;101553.09;5016045;28;20050;-67
2022/12/07 04:56:35;;;;;;;39.10;22.67;;;;;;;2.99;95.00;101551.72;5029576;28;20046;-67
2022/12/07 04:59:03;;;;;;;39.70;22.17;;;;;;;3.15;94.74;101550.09;5037395;28;20056;-67
2022/12/07 05:01:31;;;;;;;36.88;21.35;;;;;;;3.29;93.88;101546.84;5027688;28;20083;-68
2022/12/07 05:03:58;;;;;;;38.50;21.67;;;;;;;3.24;93.28;101544.00;5038020;28;20045;-67
2022/12/07 05:06:26;;;;;;;35.75;19.63;;;;;;;3.53;93.03;101543.94;5034196;28;20121;-68
2022/12/07 05:08:53;;;;;;;40.80;20.02;;;;;;;3.23;92.33;101541.53;5036311;28;20077;-69
2022/12/07 05:11:39;;;;;;;36.92;21.55;;;;;;;2.95;93.03;101542.38;5047091;28;20052;-68
2022/12/07 05:14:13;;;;;;;38.25;22.20;;;;;;;3.26;93.59;101541.06;5057761;28;20053;-68
2022/12/07 05:16:42;;;;;;;37.30;19.45;;;;;;;3.52;92.82;101534.13;5023119;28;20544;-68
2022/12/07 05:19:09;;;;;;;34.13;20.27;;;;;;;3.85;91.96;101531.41;5021652;28;20060;-67
2022/12/07 05:21:37;;;;;;;36.28;20.75;;;;;;;3.80;90.05;101534.88;5011834;28;20052;-68
2022/12/07 05:24:05;;;;;;;33.85;20.00;;;;;;;3.81;90.09;101541.97;5019593;28;20053;-67
2022/12/07 05:26:32;;;;;;;35.80;19.95;;;;;;;4.12;89.53;101544.09;5006996;28;20072;-67
2022/12/07 05:29:00;;;;;;;31.98;18.85;;;;;;;4.15;88.70;101538.13;5040013;28;20573;-68
2022/12/07 05:31:27;;;;;;;29.38;18.02;;;;;;;4.12;87.78;101548.69;5019218;28;20520;-70
2022/12/07 05:33:55;;;;;;;29.15;17.30;;;;;;;4.20;87.27;101553.75;5002203;28;20057;-67
2022/12/07 05:36:22;;;;;;;28.17;17.95;;;;;;;3.77;87.86;101556.34;5027054;28;20626;-67
2022/12/07 05:38:50;;;;;;;35.85;20.48;;;;;;;3.60;88.70;101555.50;5036005;28;20052;-68
2022/12/07 05:44:05;;;;;;;34.47;19.33;;;;;;;3.75;88.81;101555.78;5018058;28;20049;-67
2022/12/07 05:46:32;;;;;;;34.53;19.92;;;;;;;3.65;89.44;101550.97;5043284;28;20069;-68
2022/12/07 05:49:00;;;;;;;35.55;19.25;;;;;;;3.52;89.90;101547.75;5037196;28;20073;-70
2022/12/07 05:51:27;;;;;;;35.42;19.90;;;;;;;3.97;89.34;101554.78;5047443;28;20053;-70
2022/12/07 05:53:55;;;;;;;33.15;18.67;;;;;;;3.69;89.15;101549.41;5056608;28;20044;-69
2022/12/07 05:56:22;;;;;;;35.90;20.27;;;;;;;3.78;89.94;101542.50;5043425;28;20534;-68
2022/12/07 06:01:36;;;;;;;31.15;17.48;;;;;;;4.20;87.58;101540.13;4999497;28;20049;-69
2022/12/07 06:04:03;;;;;;;30.85;17.98;;;;;;;4.27;87.98;101549.75;5015804;28;20050;-69
2022/12/07 06:06:31;;;;;;;31.52;18.58;;;;;;;4.38;87.10;101548.81;5008765;28;20531;-69
2022/12/07 06:08:58;;;;;;;31.17;17.33;;;;;;;4.40;86.45;101548.56;5035521;28;20494;-68
2022/12/07 06:14:11;;;;;;;29.55;16.70;;;;;;;4.12;86.32;101544.09;5006678;28;20058;-69
2022/12/07 06:16:39;;;;;;;30.05;19.50;;;;;;;3.97;87.22;101553.94;5029032;28;20060;-70
2022/12/07 06:19:06;;;;;;;33.78;18.08;;;;;;;3.85;88.48;101548.59;5035771;28;20049;-69
2022/12/07 06:21:33;;;;;;;31.73;17.25;;;;;;;3.74;88.91;101544.03;5035726;28;20440;-70
2022/12/07 06:24:01;;;;;;;34.00;18.88;;;;;;;3.67;89.89;101546.09;5018166;28;20076;-70
2022/12/07 06:26:29;;;;;;;32.72;17.83;;;;;;;4.10;90.03;101539.94;5038240;28;20045;-69
2022/12/07 06:28:56;;;;;;;27.42;17.35;;;;;;;4.15;88.34;101537.31;5038641;28;20045;-70
2022/12/07 06:31:23;;;;;;;29.20;17.15;;;;;;;3.74;88.52;101546.78;5038293;28;20058;-68
2022/12/07 06:33:51;;;;;;;27.98;17.45;;;;;;;3.56;90.10;101547.00;4995282;28;20049;-70
2022/12/07 06:36:18;;;;;;;30.67;17.40;;;;;;;3.44;90.48;101555.25;5040607;28;20056;-69
2022/12/07 06:38:53;;;;;;;27.27;16.95;;;;;;;3.40;91.33;101547.81;5036026;28;20068;-69
2022/12/07 06:41:21;;;;;;;28.38;18.15;;;;;;;3.59;91.43;101549.25;5051157;28;20053;-69
2022/12/07 06:43:48;;;;;;;27.83;17.23;;;;;;;3.72;90.92;101551.63;5035094;28;20519;-69
2022/12/07 06:46:22;;;;;;;29.55;17.13;;;;;;;3.60;90.97;101545.44;5008988;28;20076;-70
2022/12/07 06:48:50;;;;;;;29.08;16.42;;;;;;;3.66;91.02;101552.63;5004862;28;20042;-69
2022/12/07 06:51:17;;;;;;;28.15;16.35;;;;;;;3.95;90.70;101543.28;5007712;28;20057;-70
2022/12/07 06:53:45;;;;;;;31.23;17.50;;;;;;;4.12;89.55;101540.53;5017116;28;20050;-70
2022/12/07 06:56:12;;;;;;;28.27;16.73;;;;;;;3.91;88.68;101547.59;5013825;28;20058;-69
2022/12/07 06:58:39;;;;;;;30.13;15.90;;;;;;;3.84;88.96;101552.38;5034766;28;20041;-70
2022/12/07 07:01:12;;;;;;;35.33;20.25;;;;;;;3.83;89.07;101555.34;5033941;28;20053;-69
2022/12/07 07:03:39;;;;;;;29.65;16.75;;;;;;;3.80;88.72;101550.41;5036409;28;20053;-71
2022/12/07 07:06:07;;;;;;;29.05;18.70;;;;;;;3.86;89.05;101552.13;5033568;28;20045;-68
2022/12/07 07:08:36;;;;;;;29.30;17.05;;;;;;;3.94;88.41;101549.81;5015574;28;20045;-68
2022/12/07 07:11:04;;;;;;;28.77;16.58;;;;;;;4.19;88.07;101547.47;5033711;28;20045;-68
2022/12/07 07:13:32;;;;;;;27.15;16.33;;;;;;;4.07;87.56;101549.47;5034527;28;20049;-68
2022/12/07 07:15:59;;;;;;;28.48;16.15;;;;;;;3.82;88.22;101551.78;5034909;28;20785;-67
2022/12/07 07:18:27;;;;;;;28.90;16.40;;;;;;;3.83;88.69;101548.00;5032583;28;20038;-68
2022/12/07 07:20:55;;;;;;;28.92;16.65;;;;;;;3.98;89.04;101550.97;5017304;28;20045;-68
2022/12/07 07:23:23;;;;;;;33.75;17.40;;;;;;;4.15;89.03;101553.69;5001191;28;20053;-68
2022/12/07 07:25:50;;;;;;;26.70;17.20;;;;;;;4.43;88.58;101545.31;5018095;28;20049;-67
2022/12/07 07:28:18;;;;;;;26.35;15.50;;;;;;;4.79;88.09;101549.31;5007055;28;20050;-66
2022/12/07 07:30:45;;;;;;;27.65;15.20;;;;;;;4.71;87.70;101549.78;5000360;28;20073;-68
2022/12/07 07:33:12;;;;;;;23.13;16.08;;;;;;;4.71;86.57;101549.78;5024484;28;20496;-67
2022/12/07 07:35:40;;;;;;;25.70;15.73;;;;;;;4.80;86.58;101550.97;5022120;28;20048;-67
2022/12/07 07:38:08;;;;;;;34.28;21.58;;;;;;;4.89;85.34;101542.09;5024595;28;20041;-67
2022/12/07 07:40:35;;;;;;;29.23;16.70;;;;;;;5.01;85.90;101541.94;5032997;28;20068;-66
2022/12/07 07:43:03;;;;;;;23.55;15.88;;;;;;;4.86;85.16;101549.97;5023413;28;20049;-66
2022/12/07 07:45:30;;;;;;;27.25;15.52;;;;;;;4.78;84.93;101551.22;5029402;28;20056;-66
2022/12/07 07:47:58;;;;;;;27.80;15.57;;;;;;;5.07;84.83;101546.38;5033767;28;20056;-69
2022/12/07 07:50:25;;;;;;;23.23;15.20;;;;;;;4.84;84.27;101550.22;5017218;28;20045;-69
2022/12/07 07:52:52;;;;;;;26.88;15.38;;;;;;;4.85;84.09;101548.28;5034075;28;20641;-66
2022/12/07 07:55:20;;;;;;;29.52;15.75;;;;;;;4.97;84.38;101551.72;5033499;28;21968;-67
2022/12/07 07:57:47;;;;;;;27.38;15.85;;;;;;;5.28;83.42;101545.50;5034559;28;20053;-66
2022/12/07 08:00:21;;;;;;;29.17;15.90;;;;;;;5.38;82.22;101548.31;5009604;28;20053;-67
2022/12/07 08:02:48;;;;;;;25.75;15.02;;;;;;;5.18;82.73;101559.03;5027288;28;21370;-66
2022/12/07 08:05:16;;;;;;;23.33;14.85;;;;;;;5.18;83.44;101561.75;5009686;28;20049;-67
2022/12/07 08:07:44;;;;;;;23.70;14.57;;;;;;;5.01;83.88;101555.56;5004031;28;20062;-70
2022/12/07 08:10:13;;;;;;;33.15;16.17;;;;;;;4.98;84.32;101556.09;5006259;28;20057;-69
2022/12/07 08:15:29;;;;;;;30.17;16.25;;;;;;;4.95;84.23;101553.88;5024096;28;20061;-67
2022/12/07 08:17:56;;;;;;;23.87;15.50;;;;;;;5.22;84.12;101561.00;5011816;28;20053;-69
2022/12/07 08:20:24;;;;;;;23.25;15.52;;;;;;;5.32;83.14;101563.00;5005450;28;20053;-67
2022/12/07 08:22:52;;;;;;;26.20;14.77;;;;;;;5.36;83.21;101559.50;4991285;28;20049;-69
2022/12/07 08:25:19;;;;;;;25.50;14.55;;;;;;;5.45;83.15;101557.13;5025360;28;20061;-65
2022/12/07 08:27:47;;;;;;;23.15;15.00;;;;;;;5.48;82.46;101573.00;5029355;28;20060;-69
2022/12/07 08:30:15;;;;;;;25.55;15.05;;;;;;;5.33;83.91;101573.69;5026443;28;20045;-69
2022/12/07 08:32:44;;;;;;;24.45;14.98;;;;;;;5.16;84.10;101572.94;5039673;28;20061;-66
2022/12/07 08:35:12;;;;;;;30.85;15.25;;;;;;;5.14;84.71;101569.69;5029092;28;20061;-66
2022/12/07 08:37:40;;;;;;;27.40;14.75;;;;;;;5.26;84.80;101575.81;5013522;28;20077;-69
2022/12/07 08:40:09;;;;;;;34.40;14.90;;;;;;;5.35;84.39;101567.97;4996809;28;20045;-69
2022/12/07 08:42:39;;;;;;;25.98;14.50;;;;;;;5.13;84.42;101565.28;5013623;28;20048;-67
2022/12/07 08:45:11;;;;;;;28.17;15.88;;;;;;;5.18;85.22;101578.16;5024441;28;20095;-67
2022/12/07 08:47:52;;;;;;;27.27;15.07;;;;;;;5.67;84.43;101579.72;5017101;28;20061;-66
2022/12/07 08:50:19;;;;;;;23.48;14.43;;;;;;;5.45;82.85;101581.72;5008187;28;20056;-67
2022/12/07 08:52:52;;;;;;;23.75;14.13;;;;;;;5.53;82.33;101581.25;5030791;28;20053;-70
2022/12/07 08:55:20;;;;;;;25.90;15.15;;;;;;;4.83;84.73;101584.03;5008492;28;20057;-70
2022/12/07 08:57:48;;;;;;;22.58;14.60;;;;;;;4.78;86.12;101585.91;5022899;28;20056;-67
2022/12/07 09:00:16;;;;;;;26.20;15.93;;;;;;;4.57;87.59;101582.06;5028452;28;20120;-66
2022/12/07 09:02:45;;;;;;;29.70;15.55;;;;;;;4.92;88.74;101577.03;5014102;28;20041;-68
2022/12/07 09:05:14;;;;;;;27.10;15.38;;;;;;;5.07;86.55;101574.50;4976425;28;20053;-67
2022/12/07 09:07:45;;;;;;;22.55;14.27;;;;;;;5.03;86.57;101580.72;5018773;28;20065;-69
2022/12/07 09:10:12;;;;;;;25.37;15.23;;;;;;;5.29;86.80;101574.44;5029182;28;20057;-70
2022/12/07 09:12:40;;;;;;;23.95;15.93;;;;;;;5.27;86.31;101574.72;5025498;28;20045;-67
2022/12/07 09:15:08;;;;;;;31.65;15.93;;;;;;;5.20;85.74;101581.44;5011794;28;20515;-67
2022/12/07 09:17:35;;;;;;;30.73;15.10;;;;;;;5.32;85.02;101582.13;5026739;28;20045;-67
2022/12/07 09:20:05;;;;;;;23.30;14.07;;;;;;;5.46;84.65;101578.72;5030076;28;20149;-66
2022/12/07 09:22:33;;;;;;;27.17;14.18;;;;;;;5.55;83.47;101579.09;5035481;28;20050;-66
2022/12/07 09:25:01;;;;;;;25.67;14.23;;;;;;;5.53;83.33;101582.06;5025689;28;20613;-65
2022/12/07 09:27:28;;;;;;;25.85;15.05;;;;;;;5.29;84.21;101579.91;5012019;28;20054;-69
2022/12/07 09:29:56;;;;;;;24.58;15.30;;;;;;;5.51;84.34;101580.66;5011530;28;20050;-69
2022/12/07 09:32:23;;;;;;;22.75;14.65;;;;;;;5.92;83.83;101580.00;5017346;28;20041;-64
2022/12/07 09:34:51;;;;;;;20.92;13.95;;;;;;;5.25;82.40;101586.97;5031395;28;20381;-67
2022/12/07 09:37:18;;;;;;;25.95;14.90;;;;;;;5.36;84.28;101580.53;5014369;28;20046;-67
2022/12/07 09:39:45;;;;;;;26.40;14.75;;;;;;;5.40;84.35;101585.25;5018060;28;20042;-67
2022/12/07 09:42:34;;;;;;;29.10;14.30;;;;;;;5.79;83.39;101574.91;5012770;28;20444;-67
2022/12/07 09:45:05;;;;;;;24.48;14.05;;;;;;;6.11;81.95;101567.56;5025935;28;20053;-67
2022/12/07 09:47:33;;;;;;;29.90;14.68;;;;;;;6.08;80.93;101570.81;5009551;28;20410;-66
2022/12/07 09:50:21;;;;;;;26.20;15.40;;;;;;;5.86;81.01;101574.75;5028396;28;20034;-67
2022/12/07 09:52:49;;;;;;;25.60;14.25;;;;;;;6.18;81.60;101575.50;5014656;28;20503;-68
2022/12/07 09:55:36;;;;;;;25.73;14.30;;;;;;;6.27;80.12;101566.56;5027265;28;20054;-67
2022/12/07 09:58:04;;;;;;;23.50;13.98;;;;;;;6.10;80.04;101565.88;5006424;28;20061;-67
2022/12/07 10:00:31;;;;;;;23.85;14.48;;;;;;;6.19;80.44;101566.25;4998796;28;20053;-67
2022/12/07 10:03:00;;;;;;;29.40;14.73;;;;;;;6.33;79.55;101560.03;5012597;28;20065;-68
2022/12/07 10:05:45;;;;;;;24.80;15.18;;;;;;;6.42;79.47;101550.22;5012221;28;20062;-68
2022/12/07 10:08:13;;;;;;;17.52;11.05;;;;;;;12.46;69.18;101537.50;5005131;28;20049;-51
2022/12/07 10:10:41;;;;;;;21.75;12.43;;;;;;;11.67;57.44;101539.75;5012491;28;20055;-66
2022/12/07 10:13:11;;;;;;;20.48;12.35;;;;;;;10.83;62.41;101543.44;5002670;28;20061;-67
2022/12/07 10:15:55;;;;;;;21.70;13.43;;;;;;;9.32;66.02;101541.28;5007939;28;20049;-67
2022/12/07 10:18:44;;;;;;;21.10;13.73;;;;;;;8.17;70.40;101543.41;5008098;28;20053;-67
2022/12/07 10:21:25;;;;;;;27.55;14.73;;;;;;;7.39;75.33;101553.00;4999428;28;20054;-68
2022/12/07 10:24:04;;;;;;;25.90;13.70;;;;;;;5.75;79.93;101563.69;5019029;28;20045;-67
2022/12/07 10:26:35;;;;;;;20.83;14.57;;;;;;;6.23;80.51;101551.75;4997983;28;20060;-66
2022/12/07 10:29:24;;;;;;;28.55;14.98;;;;;;;5.92;81.31;101544.44;5004778;28;20060;-67
2022/12/07 10:31:56;;;;;;;30.50;14.40;;;;;;;6.36;82.95;101545.00;5018726;28;20054;-67
2022/12/07 10:34:33;;;;;;;21.70;14.05;;;;;;;5.58;82.19;101538.41;4990577;28;20048;-66
2022/12/07 10:37:16;;;;;;;27.38;15.13;;;;;;;5.49;84.48;101534.50;5025665;28;20058;-66
2022/12/07 10:39:48;;;;;;;27.08;14.93;;;;;;;6.04;84.26;101533.31;5012554;28;20062;-68
2022/12/07 10:42:18;;;;;;;22.10;14.43;;;;;;;6.51;80.78;101526.75;5019617;28;20050;-67
2022/12/07 10:44:46;;;;;;;25.95;14.27;;;;;;;6.76;80.46;101523.28;5014655;28;20049;-67
2022/12/07 10:48:12;;;;;;;25.35;14.02;;;;;;;7.19;77.59;101513.78;5018513;28;20057;-68
2022/12/07 10:51:16;;;;;;;25.00;14.18;;;;;;;8.05;78.23;101506.38;5004025;28;20066;-66
2022/12/07 10:54:02;;;;;;;28.17;15.00;;;;;;;6.93;78.05;101504.72;5010403;28;21015;-68
2022/12/07 10:57:22;;;;;;;27.45;14.23;;;;;;;7.33;79.42;101501.22;5026722;28;20125;-67
2022/12/07 10:59:55;;;;;;;20.90;13.55;;;;;;;7.33;79.05;101491.09;4965006;28;20080;-67
2022/12/07 11:02:32;;;;;;;24.33;14.10;;;;;;;6.84;79.13;101490.72;5022064;28;20050;-67
2022/12/07 11:05:20;;;;;;;24.40;13.15;;;;;;;6.66;80.59;101484.91;5026145;28;20054;-67
2022/12/07 11:07:57;;;;;;;25.65;15.63;;;;;;;7.43;80.49;101479.28;5010108;28;20057;-67
2022/12/07 11:10:43;;;;;;;30.88;15.60;;;;;;;7.79;77.30;101473.50;5011301;28;20062;-65
2022/12/07 11:13:19;;;;;;;33.55;21.02;;;;;;;6.29;80.71;101481.50;5007185;28;20512;-66
2022/12/07 11:16:18;;;;;;;33.47;19.73;;;;;;;6.97;81.08;101481.19;5014727;28;20057;-66
2022/12/07 11:19:06;;;;;;;28.02;14.18;;;;;;;8.14;77.83;101466.31;4993660;28;20054;-68
2022/12/07 11:22:13;;;;;;;25.27;15.68;;;;;;;7.00;78.94;101466.94;5011613;28;20082;-66
2022/12/07 11:24:53;;;;;;;27.83;16.48;;;;;;;6.51;81.50;101466.53;5020478;28;20057;-66
2022/12/07 11:27:29;;;;;;;31.40;15.13;;;;;;;6.41;82.79;101458.28;5000993;28;20053;-65
2022/12/07 11:30:22;;;;;;;30.17;19.50;;;;;;;6.42;83.37;101454.44;5008228;28;20053;-66
2022/12/07 11:33:26;;;;;;;27.40;17.27;;;;;;;6.46;83.38;101449.28;5026957;28;20045;-65
2022/12/07 11:36:04;;;;;;;35.40;18.65;;;;;;;6.46;83.16;101441.06;4993356;28;20057;-65
2022/12/07 11:38:41;;;;;;;35.97;20.42;;;;;;;6.69;82.38;101440.59;4992940;28;20662;-66
2022/12/07 11:41:13;;;;;;;43.22;21.80;;;;;;;6.84;82.65;101437.88;5022817;28;20049;-65
2022/12/07 11:44:06;;;;;;;53.05;31.88;;;;;;;6.88;82.24;101438.16;5013154;28;20058;-65
2022/12/07 11:46:41;;;;;;;37.78;21.25;;;;;;;6.91;82.39;101437.59;5008986;28;20404;-66
2022/12/07 11:49:24;;;;;;;35.08;18.73;;;;;;;7.05;81.46;101431.34;5031482;28;20049;-66
2022/12/07 11:51:53;;;;;;;35.10;17.75;;;;;;;7.12;81.62;101420.94;5002957;28;20046;-66